Kensett, IA

1:17 PM CDT on August 22, 2014 (GMT -0500)
Austin Municipal | Change Station
CLOSE
Current Station
Airport
Location: Austin,
Elevation: 1230 ft
Nearby Weather Stations

Elev 1230 ft 43.67 °N, 92.93 °W | Updated 22 minutes ago

Scattered Clouds
Scattered Clouds
81 °F
Feels Like 85 °F
N
0
Wind Variable Wind from North

Today
High -- | Low -- °F
--% Chance of Precip.
Yesterday
High -- | Low -- °F
Precip. -- in
6:25 AM 8:04 PM
Waning Crescent, 7% visible
Pressure 29.98 in
Visibility 7.0 miles
Clouds Scattered Clouds 2400 ft
Heat Index 85 °F
Dew Point 72 °F
Humidity 74%
Rainfall 0.00 in
Snow Depth Not available.
UV 7 out of 12
Pollen 8.60 out of 12
Air Quality Not available.
Flu Activity Not available.
METAR KAUM 221755Z AUTO 00000KT 7SM SCT024 27/22 A2998 RMK AO2

More Conditions Fewer Conditions

Pressure 29.98 in
Visibility 7.0 miles
Clouds Scattered Clouds 2400 ft
Heat Index 85 °F
Dew Point 72 °F
Humidity 74%
Rainfall 0.00 in
Snow Depth Not available.
UV 7 out of 12
Pollen 8.60 out of 12
Air Quality Not available.
Flu Activity Not available.
METAR KAUM 221755Z AUTO 00000KT 7SM SCT024 27/22 A2998 RMK AO2

More Conditions Fewer Conditions

10-Day Weather Forecast

Almanac

Astronomy

Aug. 22, 2014 Rise Set
Actual Time 6:25 AM CDT 8:04 PM CDT
Civil Twilight 5:55 AM CDT 8:34 PM CDT
Nautical Twilight 5:18 AM CDT 9:11 PM CDT
Astronomical Twilight 4:39 AM CDT 9:50 PM CDT
Moon 3:46 AM CDT 6:15 PM CDT
Length of Visible Light 14h 39m
Length of Day
13h 38m
Tomorrow will be 2m 44s shorter.
Waning Crescent, 7% of the Moon is Illuminated
Today
Waning Crescent
Aug 25
New
Sep 2
First Quarter
Sep 8
Full
Sep 15
Last Quarter

Today's Extremes

State Highs State Lows

Community

WunderPhotos

Upload Photos

1,746,214 photos uploaded!

WunderBlogs® & News

Nearby

Snow Depth

Station Depth Elevation
No new snow has been reported.

Earthquake Activity

City Distance Mag. Time & Date
No recent earthquake activity has been reported nearby.
Minimum magnitude displayed is 2.5.

Coastal Water Temperatures

Place Temperature
No Stations Reporting

Nearby Weather Stations